createdAt,value
2017-10-25T00:01:45.616Z,11.53
2017-10-25T00:04:47.224Z,11.17
2017-10-25T00:07:48.773Z,10.40
2017-10-25T00:10:50.324Z,8.60
2017-10-25T00:13:51.909Z,12.77
2017-10-25T00:16:53.622Z,14.87
2017-10-25T00:19:55.181Z,8.33
2017-10-25T00:22:56.763Z,11.13
2017-10-25T00:25:58.394Z,10.40
2017-10-25T00:28:59.952Z,9.43
2017-10-25T00:32:01.453Z,12.10
2017-10-25T00:35:03.059Z,8.07
2017-10-25T00:38:04.620Z,11.20
2017-10-25T00:41:06.187Z,8.67
2017-10-25T00:44:07.772Z,10.57
2017-10-25T00:47:09.266Z,10.80
2017-10-25T00:50:10.890Z,16.07
2017-10-25T00:53:12.420Z,14.03
2017-10-25T00:56:14.012Z,8.70
2017-10-25T00:59:16.323Z,10.27
2017-10-25T01:02:17.904Z,11.83
2017-10-25T01:05:19.458Z,16.80
2017-10-25T01:08:21.080Z,9.43
2017-10-25T01:11:22.671Z,10.07
2017-10-25T01:14:24.239Z,14.33
2017-10-25T01:17:25.824Z,12.63
2017-10-25T01:20:27.463Z,12.30
2017-10-25T01:23:29.852Z,9.53
2017-10-25T01:26:32.196Z,9.77
2017-10-25T01:29:34.730Z,11.57
2017-10-25T01:32:36.403Z,13.73
2017-10-25T01:35:37.973Z,11.10
2017-10-25T01:38:39.548Z,11.90
2017-10-25T01:41:42.513Z,14.80
2017-10-25T01:44:44.108Z,14.60
2017-10-25T01:47:46.524Z,13.77
2017-10-25T01:50:48.265Z,21.03
2017-10-25T01:53:49.955Z,13.27
2017-10-25T01:56:51.478Z,24.50
2017-10-25T01:59:53.294Z,13.83
2017-10-25T02:02:54.943Z,14.40
2017-10-25T02:05:56.878Z,18.90
2017-10-25T02:08:59.052Z,11.80
2017-10-25T02:12:02.185Z,23.90
2017-10-25T02:15:04.019Z,12.87
2017-10-25T02:18:06.468Z,17.00
2017-10-25T02:21:08.081Z,14.10
2017-10-25T02:24:10.435Z,13.33
2017-10-25T02:27:11.988Z,14.73
2017-10-25T02:30:13.477Z,9.50
2017-10-25T02:33:17.021Z,9.10
2017-10-25T02:36:18.602Z,10.33
2017-10-25T02:39:20.196Z,11.30
2017-10-25T02:42:22.976Z,13.57
2017-10-25T02:45:24.898Z,12.47
2017-10-25T02:48:26.600Z,13.10
2017-10-25T02:51:28.251Z,12.30
2017-10-25T02:54:31.324Z,10.10
2017-10-25T02:57:33.737Z,9.70
2017-10-25T03:00:35.473Z,10.63
2017-10-25T03:03:37.830Z,17.57
2017-10-25T03:06:40.400Z,16.37
2017-10-25T03:09:42.039Z,18.73
2017-10-25T03:12:45.453Z,10.43
2017-10-25T03:15:47.076Z,11.73
2017-10-25T03:18:48.709Z,13.03
2017-10-25T03:21:50.370Z,13.20
2017-10-25T03:24:52.012Z,9.90
2017-10-25T03:27:55.454Z,11.67
2017-10-25T03:30:57.197Z,10.10
2017-10-25T03:33:58.804Z,12.83
2017-10-25T03:37:00.567Z,11.67
2017-10-25T03:40:02.927Z,9.30
2017-10-25T03:43:05.170Z,12.50
2017-10-25T03:46:06.760Z,6.93
2017-10-25T03:49:08.401Z,5.27
2017-10-25T03:52:10.701Z,5.43
2017-10-25T03:55:13.081Z,7.10
2017-10-25T03:58:15.193Z,4.67
2017-10-25T04:01:17.873Z,7.83
2017-10-25T04:04:19.579Z,2.83
2017-10-25T04:07:21.918Z,5.07
2017-10-25T04:10:24.463Z,8.30
2017-10-25T04:13:26.032Z,4.77
2017-10-25T04:16:28.406Z,10.33
2017-10-25T04:19:30.171Z,8.97
2017-10-25T04:22:31.742Z,7.00
2017-10-25T04:25:33.364Z,6.40
2017-10-25T04:28:35.709Z,11.43
2017-10-25T04:31:38.275Z,8.00
2017-10-25T04:34:40.637Z,10.57
2017-10-25T04:37:42.258Z,14.77
2017-10-25T04:40:43.903Z,10.17
2017-10-25T04:46:53.925Z,12.20
2017-10-25T04:49:55.653Z,14.70
2017-10-25T04:52:57.321Z,8.30
2017-10-25T04:55:58.925Z,8.83
2017-10-25T04:59:01.306Z,15.33
2017-10-25T05:02:03.701Z,9.17
2017-10-25T05:05:07.172Z,9.90
2017-10-25T05:08:09.797Z,9.50
2017-10-25T05:11:11.995Z,8.20
2017-10-25T05:14:13.664Z,10.03
2017-10-25T05:17:15.232Z,8.10
2017-10-25T05:20:16.908Z,10.27
2017-10-25T05:23:18.609Z,11.13
2017-10-25T05:26:20.410Z,7.37
2017-10-25T05:29:22.840Z,11.13
2017-10-25T05:32:25.188Z,21.27
2017-10-25T05:35:26.846Z,11.50
2017-10-25T05:38:28.429Z,8.70
2017-10-25T05:41:30.116Z,7.30
2017-10-25T05:44:32.872Z,11.93
2017-10-25T05:47:34.589Z,9.77
2017-10-25T05:50:36.257Z,5.33
2017-10-25T05:53:39.743Z,13.40
2017-10-25T05:56:42.045Z,12.50
2017-10-25T05:59:44.289Z,6.57
2017-10-25T06:02:47.563Z,7.80
2017-10-25T06:05:49.980Z,8.80
2017-10-25T06:08:53.328Z,6.60
2017-10-25T06:11:56.376Z,17.53
2017-10-25T06:14:58.175Z,15.00
2017-10-25T06:18:00.821Z,4.83
2017-10-25T06:21:03.655Z,5.67
2017-10-25T06:24:06.084Z,11.03
2017-10-25T06:27:10.360Z,7.67
2017-10-25T06:30:14.048Z,7.07
2017-10-25T06:33:17.152Z,8.93
2017-10-25T06:36:21.210Z,7.47
2017-10-25T06:39:27.268Z,7.77
2017-10-25T06:42:31.654Z,8.07
2017-10-25T06:45:34.040Z,7.43
2017-10-25T06:48:37.728Z,14.53
2017-10-25T06:51:39.384Z,7.13
2017-10-25T06:54:41.728Z,11.63
2017-10-25T06:57:43.206Z,13.00
2017-10-25T07:00:44.816Z,8.13
2017-10-25T07:03:46.353Z,9.80
2017-10-25T07:06:48.434Z,7.07
2017-10-25T07:09:49.967Z,10.00
2017-10-25T07:12:54.226Z,13.67
2017-10-25T07:15:56.015Z,16.67
2017-10-25T07:18:58.481Z,8.50
2017-10-25T07:22:19.019Z,12.17
2017-10-25T07:25:20.942Z,12.17
2017-10-25T07:28:28.172Z,10.83
2017-10-25T07:31:29.813Z,6.17
2017-10-25T07:34:31.504Z,9.93
2017-10-25T07:40:47.296Z,8.57
2017-10-25T07:43:48.888Z,7.13
2017-10-25T07:46:56.475Z,6.83
2017-10-25T07:50:05.910Z,6.13
2017-10-25T07:53:08.256Z,13.27
2017-10-25T09:05:48.223Z,5.20
2017-10-25T09:08:50.573Z,5.60
2017-10-25T09:11:53.310Z,10.83
2017-10-25T09:14:54.929Z,8.40
2017-10-25T09:17:57.898Z,9.70
2017-10-25T09:20:59.549Z,9.93
2017-10-25T09:24:02.302Z,6.60
2017-10-25T09:30:12.194Z,8.37
2017-10-25T09:33:14.765Z,18.23
2017-10-25T09:36:16.351Z,6.90
2017-10-25T09:39:17.887Z,4.20
2017-10-25T09:42:20.483Z,5.00
2017-10-25T09:45:22.958Z,13.47
2017-10-25T09:48:25.729Z,9.80
2017-10-25T09:51:27.963Z,5.43
2017-10-25T09:54:29.598Z,9.27
2017-10-25T09:57:31.920Z,4.63
2017-10-25T10:00:33.511Z,7.97
2017-10-25T10:03:35.150Z,6.83
2017-10-25T10:06:36.696Z,12.10
2017-10-25T10:09:40.357Z,9.73
2017-10-25T10:12:41.968Z,6.07
2017-10-25T10:15:43.662Z,9.40
2017-10-25T10:18:46.115Z,10.57
2017-10-25T10:21:49.622Z,8.17
2017-10-25T10:24:58.373Z,19.83
2017-10-25T10:28:00.743Z,17.67
2017-10-25T10:31:07.308Z,9.33
2017-10-25T10:34:11.997Z,8.20
2017-10-25T10:40:50.554Z,6.63
2017-10-25T10:44:20.393Z,5.27
2017-10-25T10:47:22.096Z,7.40
2017-10-25T10:50:24.686Z,11.33
2017-10-25T10:53:26.406Z,4.83
2017-10-25T10:56:28.028Z,3.30
2017-10-25T10:59:29.628Z,5.07
2017-10-25T11:02:31.321Z,9.90
2017-10-25T11:05:32.908Z,5.27
2017-10-25T11:11:43.528Z,5.40
2017-10-25T11:14:45.110Z,8.40
2017-10-25T11:21:57.083Z,12.40
2017-10-25T11:25:03.536Z,8.17
2017-10-25T11:28:07.501Z,6.50
2017-10-25T11:31:11.971Z,4.60
2017-10-25T11:38:01.490Z,13.40
2017-10-25T11:41:03.832Z,16.70
2017-10-25T11:44:05.463Z,5.20
2017-10-25T11:47:07.211Z,9.63
2017-10-25T12:08:57.975Z,10.60
2017-10-25T12:48:52.671Z,11.60
2017-10-25T12:51:56.097Z,11.00
2017-10-25T16:46:19.956Z,34.93
2017-10-25T16:49:21.745Z,19.43
2017-10-25T16:52:24.086Z,20.63
2017-10-25T16:55:25.888Z,18.90
2017-10-25T16:58:27.577Z,21.17
2017-10-25T17:01:29.227Z,17.47
2017-10-25T17:04:31.821Z,19.97
2017-10-25T17:07:35.385Z,27.73
2017-10-25T19:22:31.593Z,35.60
2017-10-25T19:25:33.989Z,41.43
2017-10-25T20:25:32.686Z,40.27
2017-10-25T20:28:35.643Z,38.33
2017-10-25T20:31:37.882Z,33.50
2017-10-25T20:34:39.969Z,45.20
2017-10-25T20:37:41.622Z,40.80
2017-10-25T20:40:43.178Z,40.70
2017-10-25T20:43:54.781Z,42.43
2017-10-25T20:46:57.020Z,44.50
2017-10-25T20:49:58.727Z,36.03
2017-10-25T20:53:01.144Z,40.53
2017-10-25T20:56:05.196Z,45.93
2017-10-25T20:59:07.479Z,40.60
2017-10-25T21:02:09.150Z,36.97
2017-10-25T21:05:14.286Z,35.20
2017-10-25T21:08:28.136Z,45.17
2017-10-25T21:11:30.354Z,43.43
2017-10-25T21:14:31.867Z,44.87
2017-10-25T21:17:34.513Z,41.73
2017-10-25T21:20:36.801Z,48.77
2017-10-25T21:23:38.330Z,42.93
2017-10-25T21:26:40.850Z,58.23
2017-10-25T21:29:42.807Z,42.40
2017-10-25T21:32:45.249Z,40.43
2017-10-25T21:35:47.604Z,41.67
2017-10-25T21:38:49.537Z,47.70
2017-10-25T21:41:51.146Z,48.27
2017-10-25T21:44:52.885Z,43.73
2017-10-25T21:47:54.431Z,53.07
2017-10-25T21:50:56.666Z,50.97
2017-10-25T21:53:58.352Z,41.73
2017-10-25T21:56:59.840Z,49.83
2017-10-25T22:00:01.858Z,44.47
2017-10-25T22:03:03.685Z,53.10
2017-10-25T22:06:05.592Z,54.70
2017-10-25T22:09:07.044Z,64.00
2017-10-25T22:12:08.618Z,77.67
2017-10-25T22:15:10.629Z,56.10
2017-10-25T22:18:19.621Z,63.63
2017-10-25T22:21:21.237Z,43.50
2017-10-25T22:24:22.979Z,59.73
2017-10-25T22:27:24.593Z,54.67
2017-10-25T22:30:26.146Z,54.10
2017-10-25T22:33:27.702Z,58.57
2017-10-25T22:36:29.235Z,50.17
2017-10-25T22:39:30.757Z,55.43
2017-10-25T22:42:32.272Z,51.13
2017-10-25T22:45:33.864Z,51.63
2017-10-25T22:48:35.434Z,49.53
2017-10-25T22:51:36.943Z,51.50
2017-10-25T22:54:38.666Z,56.83
2017-10-25T22:57:40.965Z,51.03
2017-10-25T23:00:42.518Z,61.40
2017-10-25T23:03:44.044Z,48.83
2017-10-25T23:06:46.376Z,48.27
2017-10-25T23:09:49.574Z,51.17
2017-10-25T23:12:51.167Z,49.57
2017-10-25T23:15:52.681Z,50.27
2017-10-25T23:18:54.249Z,54.23
2017-10-25T23:21:57.455Z,57.47
2017-10-25T23:24:59.740Z,50.73
2017-10-25T23:28:01.318Z,53.90
2017-10-25T23:31:02.885Z,62.10
2017-10-25T23:34:04.389Z,53.67
2017-10-25T23:37:05.927Z,60.87
2017-10-25T23:40:07.527Z,70.77
2017-10-25T23:43:09.061Z,60.43
2017-10-25T23:46:10.552Z,53.90
2017-10-25T23:49:12.086Z,54.67
2017-10-25T23:52:13.662Z,56.63
2017-10-25T23:55:15.298Z,59.77
2017-10-25T23:58:16.930Z,51.43
